Time;durP1;ratioP1;P1;durP2;ratioP2;P2;SDS_P1;SDS_P2;PMS_P1;PMS_P2;Temp;Humidity;BMP_temperature;BMP_pressure;BME280_temperature;BME280_humidity;BME280_pressure;Samples;Min_cycle;Max_cycle;Signal;HPM_P1;HPM_P2
2022/12/09 00:00:18;;;;;;;17.60;8.35;;;-1.90;99.90;;;;;;5073325;28;20078;-62
2022/12/09 00:02:44;;;;;;;14.43;8.35;;;-1.90;99.90;;;;;;5068670;28;20058;-62
2022/12/09 00:05:10;;;;;;;14.02;8.82;;;-2.00;99.90;;;;;;5069632;28;20070;-61
2022/12/09 00:07:35;;;;;;;15.00;8.05;;;-2.10;99.90;;;;;;5070734;28;20082;-62
2022/12/09 00:10:03;;;;;;;16.55;8.52;;;-2.10;99.90;;;;;;5072831;28;20384;-62
2022/12/09 00:12:29;;;;;;;12.85;8.00;;;-2.10;99.90;;;;;;5071014;28;20025;-60
2022/12/09 00:14:54;;;;;;;15.55;8.00;;;-2.10;99.90;;;;;;5083632;28;20024;-62
2022/12/09 00:17:20;;;;;;;12.27;7.80;;;-2.20;99.90;;;;;;5072659;28;20045;-63
2022/12/09 00:19:46;;;;;;;17.17;7.78;;;-2.10;99.90;;;;;;5071349;28;20028;-61
2022/12/09 00:22:12;;;;;;;17.90;8.60;;;-2.10;99.90;;;;;;5070980;28;20056;-62
2022/12/09 00:24:38;;;;;;;17.23;9.18;;;-2.10;99.90;;;;;;5078422;28;20021;-63
2022/12/09 00:27:04;;;;;;;19.00;7.97;;;-2.10;99.90;;;;;;5072211;28;20036;-63
2022/12/09 00:29:29;;;;;;;18.48;8.20;;;-2.10;99.90;;;;;;5070771;28;20028;-60
2022/12/09 00:31:55;;;;;;;17.30;9.07;;;-2.00;99.90;;;;;;5078035;28;20032;-62
2022/12/09 00:34:21;;;;;;;18.90;9.52;;;-2.00;99.90;;;;;;5079905;28;20032;-62
2022/12/09 00:36:47;;;;;;;22.23;9.45;;;-2.00;99.90;;;;;;5070562;28;20041;-62
2022/12/09 00:39:13;;;;;;;15.57;8.35;;;-2.00;99.90;;;;;;5072500;28;20024;-61
2022/12/09 00:41:38;;;;;;;18.85;8.75;;;-2.00;99.90;;;;;;5069896;28;20047;-62
2022/12/09 00:44:04;;;;;;;20.75;9.25;;;-2.00;99.90;;;;;;5072813;28;20056;-62
2022/12/09 00:46:30;;;;;;;15.45;8.90;;;-2.00;99.90;;;;;;5070266;28;20047;-62
2022/12/09 00:48:56;;;;;;;17.08;8.88;;;-1.90;99.90;;;;;;5066441;28;20074;-61
2022/12/09 00:51:23;;;;;;;14.65;8.77;;;-1.90;99.90;;;;;;5068415;28;20035;-62
2022/12/09 00:53:54;;;;;;;19.02;10.27;;;-1.90;99.90;;;;;;5078690;28;20051;-62
2022/12/09 00:56:25;;;;;;;19.00;9.18;;;-1.90;99.90;;;;;;5071596;28;20036;-62
2022/12/09 00:58:51;;;;;;;15.80;8.32;;;-2.00;99.90;;;;;;5072021;28;20112;-61
2022/12/09 01:01:17;;;;;;;17.48;9.38;;;-2.00;99.90;;;;;;5072084;28;20036;-61
2022/12/09 01:03:43;;;;;;;16.55;8.85;;;-2.10;99.90;;;;;;5074467;28;20029;-62
2022/12/09 01:06:11;;;;;;;15.35;8.35;;;-2.10;99.90;;;;;;5072053;28;20044;-62
2022/12/09 01:08:37;;;;;;;15.68;8.23;;;-2.10;99.90;;;;;;5070597;28;20036;-62
2022/12/09 01:11:18;;;;;;;18.15;9.50;;;-2.10;99.90;;;;;;5071377;28;20085;-61
2022/12/09 01:13:44;;;;;;;19.00;8.43;;;-2.20;99.90;;;;;;5075792;28;20451;-62
2022/12/09 01:16:19;;;;;;;20.67;10.07;;;-2.20;99.90;;;;;;5071260;28;20033;-62
2022/12/09 01:18:45;;;;;;;18.30;9.18;;;-2.20;99.90;;;;;;5069972;28;20040;-62
2022/12/09 01:21:11;;;;;;;17.23;9.18;;;-2.20;99.90;;;;;;5071199;28;20029;-62
2022/12/09 01:23:37;;;;;;;17.23;8.80;;;-2.20;99.90;;;;;;5078322;28;20384;-62
2022/12/09 01:26:05;;;;;;;18.88;9.32;;;-2.20;99.90;;;;;;5070865;28;20468;-62
2022/12/09 01:28:32;;;;;;;22.65;9.85;;;-2.20;99.90;;;;;;5069671;28;20032;-62
2022/12/09 01:31:10;;;;;;;15.02;8.98;;;-2.20;99.90;;;;;;5070005;28;20024;-62
2022/12/09 01:33:36;;;;;;;18.92;9.75;;;-2.20;99.90;;;;;;5078248;28;20056;-62
2022/12/09 01:36:07;;;;;;;18.08;9.27;;;-2.30;99.90;;;;;;5071681;28;20030;-61
2022/12/09 01:38:33;;;;;;;18.88;9.57;;;-2.30;99.90;;;;;;5059430;28;20068;-63
2022/12/09 01:40:59;;;;;;;18.50;9.25;;;-2.30;99.90;;;;;;5070891;28;20070;-61
2022/12/09 01:43:25;;;;;;;18.77;9.60;;;-2.40;99.90;;;;;;5069744;28;20049;-63
2022/12/09 01:45:51;;;;;;;24.17;10.00;;;-2.40;99.90;;;;;;5071337;28;20430;-62
2022/12/09 01:48:26;;;;;;;14.98;8.98;;;-2.40;99.90;;;;;;5078863;28;20050;-63
2022/12/09 01:51:02;;;;;;;17.95;9.35;;;-2.50;99.90;;;;;;5058509;28;20039;-62
2022/12/09 01:53:34;;;;;;;20.77;9.35;;;-2.50;99.90;;;;;;5070272;28;20496;-62
2022/12/09 01:56:05;;;;;;;15.00;8.63;;;-2.40;99.90;;;;;;5070774;28;20029;-62
2022/12/09 01:58:31;;;;;;;18.17;8.70;;;-2.40;99.90;;;;;;5069099;28;20115;-62
2022/12/09 02:00:57;;;;;;;18.45;9.35;;;-2.50;99.90;;;;;;5071770;28;20021;-62
2022/12/09 02:03:23;;;;;;;16.50;9.10;;;-2.50;99.90;;;;;;5073996;28;20388;-62
2022/12/09 02:05:49;;;;;;;16.90;9.27;;;-2.50;99.90;;;;;;5069664;28;20070;-62
2022/12/09 02:08:17;;;;;;;19.27;9.25;;;-2.50;99.90;;;;;;5070602;28;20118;-63
2022/12/09 02:11:02;;;;;;;19.95;9.48;;;-2.60;99.90;;;;;;5068601;28;20035;-61
2022/12/09 02:13:38;;;;;;;15.20;9.15;;;-2.60;99.90;;;;;;5069527;28;20036;-61
2022/12/09 02:16:08;;;;;;;19.08;9.50;;;-2.70;99.90;;;;;;5070870;28;20032;-62
2022/12/09 02:18:39;;;;;;;13.77;8.10;;;-2.70;99.90;;;;;;5068984;28;20408;-61
2022/12/09 02:21:11;;;;;;;16.02;8.48;;;-2.80;99.90;;;;;;5069435;28;20539;-62
2022/12/09 02:23:37;;;;;;;16.60;8.93;;;-2.90;99.90;;;;;;5072259;28;20043;-62
2022/12/09 02:26:10;;;;;;;21.35;9.18;;;-2.90;99.90;;;;;;5070388;28;20024;-59
2022/12/09 02:28:56;;;;;;;17.00;8.35;;;-3.00;99.90;;;;;;5068785;28;20094;-61
2022/12/09 02:31:49;;;;;;;17.00;8.45;;;-2.90;99.90;;;;;;5070279;28;20044;-61
2022/12/09 02:34:21;;;;;;;17.65;8.52;;;-2.80;99.90;;;;;;5066526;28;20032;-63
2022/12/09 02:37:05;;;;;;;16.83;9.30;;;-2.80;99.90;;;;;;5069177;28;20111;-62
2022/12/09 02:39:51;;;;;;;17.27;8.45;;;-2.80;99.90;;;;;;5061749;28;20035;-62
2022/12/09 02:42:20;;;;;;;17.60;8.00;;;-2.80;99.90;;;;;;5074952;28;20122;-62
2022/12/09 02:44:48;;;;;;;13.98;8.55;;;-2.70;99.90;;;;;;5071458;28;20116;-62
2022/12/09 02:47:17;;;;;;;15.80;8.15;;;-2.70;99.90;;;;;;5070092;28;20033;-61
2022/12/09 02:49:47;;;;;;;19.10;8.05;;;-2.80;99.90;;;;;;5067366;28;20403;-61
2022/12/09 02:52:13;;;;;;;19.48;9.68;;;-2.70;99.90;;;;;;5074437;28;20483;-63
2022/12/09 02:54:42;;;;;;;19.70;8.30;;;-2.70;99.90;;;;;;5078029;28;20357;-62
2022/12/09 02:57:13;;;;;;;20.95;9.00;;;-2.70;99.90;;;;;;5067386;28;20121;-62
2022/12/09 02:59:39;;;;;;;20.15;10.13;;;-2.70;99.90;;;;;;5076011;28;20028;-62
2022/12/09 03:02:13;;;;;;;15.15;8.15;;;-2.70;99.90;;;;;;5075381;28;20037;-62
2022/12/09 03:04:43;;;;;;;16.35;8.55;;;-2.70;99.90;;;;;;5068986;28;20125;-61
2022/12/09 03:07:47;;;;;;;18.60;9.30;;;-2.70;99.90;;;;;;5069878;28;20024;-62
2022/12/09 03:10:33;;;;;;;14.43;8.35;;;-2.60;99.90;;;;;;5064807;28;20032;-62
2022/12/09 03:13:13;;;;;;;16.52;9.57;;;-2.60;99.90;;;;;;5074878;28;20025;-62
2022/12/09 03:15:44;;;;;;;18.65;8.43;;;-2.60;99.90;;;;;;5067575;28;20027;-63
2022/12/09 03:18:14;;;;;;;17.80;8.85;;;-2.60;99.90;;;;;;5069756;28;20044;-61
2022/12/09 03:20:42;;;;;;;13.00;7.97;;;-2.60;99.90;;;;;;5065151;28;20031;-62
2022/12/09 03:23:12;;;;;;;17.55;8.75;;;-2.60;99.90;;;;;;5072426;28;20040;-61
2022/12/09 03:25:41;;;;;;;20.02;9.13;;;-2.60;99.90;;;;;;5067909;28;20114;-62
2022/12/09 03:28:21;;;;;;;16.85;8.32;;;-2.50;99.90;;;;;;5056472;28;20025;-62
2022/12/09 03:30:48;;;;;;;15.60;8.27;;;-2.50;99.90;;;;;;5071277;28;20056;-62
2022/12/09 03:33:17;;;;;;;13.90;7.97;;;-2.50;99.90;;;;;;5073350;28;20503;-63
2022/12/09 03:35:49;;;;;;;19.92;8.88;;;-2.50;99.90;;;;;;5066467;28;20028;-63
2022/12/09 03:38:17;;;;;;;15.48;7.68;;;-2.50;99.90;;;;;;5069217;28;20039;-62
2022/12/09 03:40:44;;;;;;;15.38;8.50;;;-2.60;99.90;;;;;;5070786;28;20158;-63
2022/12/09 03:43:10;;;;;;;16.23;8.23;;;-2.60;99.90;;;;;;5077798;28;20041;-61
2022/12/09 03:45:37;;;;;;;15.23;8.73;;;-2.50;99.90;;;;;;5071879;28;20032;-61
2022/12/09 03:48:03;;;;;;;16.23;8.00;;;-2.50;99.90;;;;;;5074423;28;20488;-63
2022/12/09 03:50:39;;;;;;;18.63;7.85;;;-2.50;99.90;;;;;;5062888;28;20029;-62
2022/12/09 03:53:19;;;;;;;15.75;7.78;;;-2.50;99.90;;;;;;5074134;28;20572;-62
2022/12/09 03:55:56;;;;;;;14.18;7.75;;;-2.50;99.90;;;;;;5071792;28;20036;-63
2022/12/09 03:58:23;;;;;;;20.67;8.00;;;-2.50;99.90;;;;;;5074300;28;20101;-62
2022/12/09 04:00:48;;;;;;;13.23;7.35;;;-2.50;99.90;;;;;;5073501;28;20024;-61
2022/12/09 04:03:18;;;;;;;15.10;8.05;;;-2.50;99.90;;;;;;5078044;28;20035;-62
2022/12/09 04:05:44;;;;;;;15.00;8.15;;;-2.40;99.90;;;;;;5071248;28;20025;-62
2022/12/09 04:08:10;;;;;;;14.57;8.40;;;-2.40;99.90;;;;;;5073726;28;20043;-62
2022/12/09 04:10:36;;;;;;;12.05;7.18;;;-2.40;99.90;;;;;;5072017;28;20028;-60
2022/12/09 04:13:02;;;;;;;16.38;7.03;;;-2.40;99.90;;;;;;5075920;28;20047;-62
2022/12/09 04:15:27;;;;;;;11.55;7.18;;;-2.40;99.90;;;;;;5071052;28;20025;-63
2022/12/09 04:17:53;;;;;;;13.20;7.32;;;-2.40;99.90;;;;;;5073162;28;20033;-62
2022/12/09 04:20:19;;;;;;;11.23;6.85;;;-2.50;99.90;;;;;;5072743;28;20029;-62
2022/12/09 04:22:44;;;;;;;15.02;7.55;;;-2.50;99.90;;;;;;5073680;28;20588;-63
2022/12/09 04:25:10;;;;;;;13.93;7.45;;;-2.40;99.90;;;;;;5073497;28;20116;-62
2022/12/09 04:27:36;;;;;;;15.13;7.93;;;-2.50;99.90;;;;;;5070998;28;20024;-61
2022/12/09 04:30:02;;;;;;;16.45;8.05;;;-2.50;99.90;;;;;;5068006;28;20040;-63
2022/12/09 04:32:30;;;;;;;16.13;7.70;;;-2.50;99.90;;;;;;5070145;28;20025;-62
2022/12/09 04:34:56;;;;;;;14.55;7.38;;;-2.50;99.90;;;;;;5072595;28;20022;-62
2022/12/09 04:37:21;;;;;;;14.88;7.00;;;-2.50;99.90;;;;;;5065055;28;20131;-62
2022/12/09 04:39:47;;;;;;;17.17;7.22;;;-2.40;99.90;;;;;;5068834;28;20059;-62
2022/12/09 04:42:13;;;;;;;14.00;6.75;;;-2.40;99.90;;;;;;5075754;28;20034;-61
2022/12/09 04:44:40;;;;;;;15.25;7.22;;;-2.30;99.90;;;;;;5069350;28;20431;-62
2022/12/09 04:47:05;;;;;;;17.85;7.35;;;-2.20;99.90;;;;;;5068852;28;20116;-63
2022/12/09 04:49:31;;;;;;;13.68;7.20;;;-2.10;99.90;;;;;;5059913;28;20107;-62
2022/12/09 04:51:57;;;;;;;18.73;7.25;;;-1.90;99.90;;;;;;5077128;28;20028;-64
2022/12/09 04:54:23;;;;;;;19.02;7.75;;;-1.80;99.90;;;;;;5072419;28;20027;-62
2022/12/09 04:56:48;;;;;;;17.10;7.85;;;-1.70;99.90;;;;;;5070890;28;20098;-62
2022/12/09 04:59:15;;;;;;;12.07;7.78;;;-1.60;99.90;;;;;;5069652;28;20025;-62
2022/12/09 05:01:40;;;;;;;14.13;7.40;;;-1.70;99.90;;;;;;5068512;28;20031;-62
2022/12/09 05:04:06;;;;;;;12.68;7.30;;;-1.70;99.90;;;;;;5068878;28;20029;-62
2022/12/09 05:06:32;;;;;;;13.38;7.22;;;-1.70;99.90;;;;;;5068469;28;20033;-61
2022/12/09 05:08:58;;;;;;;12.15;7.72;;;-1.80;99.90;;;;;;5072144;28;20033;-61
2022/12/09 05:11:24;;;;;;;16.45;7.93;;;-1.70;99.90;;;;;;5070663;28;20384;-62
2022/12/09 05:13:52;;;;;;;16.63;7.18;;;-1.60;99.90;;;;;;5069498;28;20032;-62
2022/12/09 05:16:18;;;;;;;13.43;7.60;;;-1.60;99.90;;;;;;5073499;28;20031;-62
2022/12/09 05:18:46;;;;;;;13.00;7.30;;;-1.60;99.90;;;;;;5068767;28;20037;-62
2022/12/09 05:21:15;;;;;;;16.90;7.53;;;-1.50;99.90;;;;;;5071047;28;20512;-62
2022/12/09 05:23:40;;;;;;;11.90;7.03;;;-1.40;99.90;;;;;;5070921;28;20035;-62
2022/12/09 05:26:08;;;;;;;17.35;7.60;;;-1.40;99.90;;;;;;5071879;28;20393;-61
2022/12/09 05:28:34;;;;;;;15.45;6.25;;;-1.30;99.90;;;;;;5068018;28;20127;-61
2022/12/09 05:31:06;;;;;;;16.20;8.05;;;-1.30;99.90;;;;;;5071012;28;20039;-62
2022/12/09 05:33:32;;;;;;;15.68;7.97;;;-1.20;99.90;;;;;;5071569;28;20040;-62
2022/12/09 05:35:58;;;;;;;14.20;7.70;;;-1.20;99.90;;;;;;5077778;28;20074;-61
2022/12/09 05:38:25;;;;;;;14.15;7.53;;;-1.10;99.90;;;;;;5052783;28;20190;-61
2022/12/09 05:40:51;;;;;;;16.45;7.43;;;-1.10;99.90;;;;;;5070684;28;20428;-61
2022/12/09 05:43:17;;;;;;;12.27;7.03;;;-1.10;99.90;;;;;;5070562;28;20036;-62
2022/12/09 05:45:43;;;;;;;13.75;8.02;;;-1.10;99.90;;;;;;5077820;28;20028;-61
2022/12/09 05:48:09;;;;;;;16.13;8.18;;;-1.00;99.90;;;;;;5070752;28;20028;-63
2022/12/09 05:50:34;;;;;;;13.20;6.53;;;-1.00;99.90;;;;;;5067844;28;20031;-62
2022/12/09 05:53:00;;;;;;;16.15;7.07;;;-1.00;99.90;;;;;;5070966;28;20032;-62
2022/12/09 05:55:26;;;;;;;18.65;7.68;;;-1.00;99.90;;;;;;5077137;28;20427;-63
2022/12/09 05:57:53;;;;;;;14.63;6.97;;;-0.90;99.90;;;;;;5069998;28;20043;-63
2022/12/09 06:00:20;;;;;;;14.15;7.63;;;-0.80;99.90;;;;;;5070562;28;20033;-63
2022/12/09 06:02:46;;;;;;;18.75;8.50;;;-0.80;99.90;;;;;;5068193;28;20032;-62
2022/12/09 06:05:12;;;;;;;13.20;7.63;;;-0.70;99.90;;;;;;5083373;28;20170;-62
2022/12/09 06:07:38;;;;;;;13.48;7.40;;;-0.60;99.90;;;;;;5068636;28;20090;-62
2022/12/09 06:10:05;;;;;;;14.27;8.07;;;-0.60;99.90;;;;;;5070953;28;20028;-62
2022/12/09 06:12:31;;;;;;;22.45;8.65;;;-0.50;99.90;;;;;;5065306;28;20032;-62
2022/12/09 06:14:57;;;;;;;14.90;8.75;;;-0.50;99.90;;;;;;5071219;28;20044;-62
2022/12/09 06:17:22;;;;;;;14.55;7.22;;;-0.40;99.90;;;;;;5070197;28;20047;-62
2022/12/09 06:19:48;;;;;;;12.00;7.38;;;-0.30;99.90;;;;;;5068756;28;20095;-62
2022/12/09 06:22:14;;;;;;;17.30;8.57;;;-0.30;99.90;;;;;;5070008;28;20044;-62
2022/12/09 06:24:40;;;;;;;12.50;7.78;;;-0.30;99.90;;;;;;5069467;28;20017;-62
2022/12/09 06:27:06;;;;;;;18.00;9.05;;;-0.20;99.90;;;;;;5069775;28;20056;-63
2022/12/09 06:29:31;;;;;;;18.58;8.27;;;-0.30;99.90;;;;;;5066815;28;20074;-62
2022/12/09 06:31:57;;;;;;;15.02;8.13;;;-0.20;99.90;;;;;;5071018;28;20028;-62
2022/12/09 06:34:23;;;;;;;15.00;8.52;;;-0.10;99.90;;;;;;5069769;28;20115;-62
2022/12/09 06:36:49;;;;;;;14.70;8.80;;;-0.10;99.90;;;;;;5069805;28;20060;-62
2022/12/09 06:39:14;;;;;;;15.07;8.60;;;-0.10;99.90;;;;;;5051794;28;20131;-62
2022/12/09 06:41:41;;;;;;;17.40;8.63;;;-0.10;99.90;;;;;;5067452;28;20115;-62
2022/12/09 06:44:09;;;;;;;20.23;9.98;;;0.00;99.90;;;;;;5069848;28;20024;-63
2022/12/09 06:46:35;;;;;;;15.18;8.40;;;0.00;99.90;;;;;;5067894;28;20054;-63
2022/12/09 06:49:01;;;;;;;15.80;9.00;;;0.00;99.90;;;;;;5069921;28;20067;-62
2022/12/09 06:51:26;;;;;;;16.65;8.93;;;0.00;99.90;;;;;;5067994;28;20064;-62
2022/12/09 06:53:52;;;;;;;14.38;8.88;;;0.00;99.90;;;;;;5071836;28;20058;-62
2022/12/09 06:56:18;;;;;;;19.77;9.32;;;0.00;99.90;;;;;;5068961;28;20066;-62
2022/12/09 06:58:45;;;;;;;17.02;9.48;;;0.10;99.90;;;;;;5067884;28;20055;-62
2022/12/09 07:01:22;;;;;;;19.30;9.77;;;0.10;99.90;;;;;;5070085;28;20021;-62
2022/12/09 07:03:53;;;;;;;20.35;9.88;;;0.20;99.90;;;;;;5066208;28;20487;-61
2022/12/09 07:06:34;;;;;;;14.00;8.17;;;0.20;99.90;;;;;;5069692;28;20035;-61
2022/12/09 07:09:02;;;;;;;16.83;9.80;;;0.20;99.90;;;;;;5067595;28;20082;-62
2022/12/09 07:11:28;;;;;;;18.38;9.48;;;0.30;99.90;;;;;;5067388;28;20069;-63
2022/12/09 07:13:54;;;;;;;19.63;9.85;;;0.30;99.90;;;;;;5075469;28;20103;-62
2022/12/09 07:16:20;;;;;;;16.15;9.85;;;0.30;99.90;;;;;;5069460;28;20179;-62
2022/12/09 07:18:45;;;;;;;15.95;9.48;;;0.30;99.90;;;;;;5068757;28;20047;-61
2022/12/09 07:21:14;;;;;;;15.57;9.88;;;0.30;99.90;;;;;;5069435;28;20024;-61
2022/12/09 07:23:40;;;;;;;17.30;9.60;;;0.40;99.90;;;;;;5067493;28;20488;-63
2022/12/09 07:26:06;;;;;;;16.88;10.02;;;0.30;99.90;;;;;;5068930;28;20078;-63
2022/12/09 07:28:38;;;;;;;15.68;9.45;;;0.40;99.90;;;;;;5068638;28;20055;-63
2022/12/09 07:31:05;;;;;;;13.30;8.18;;;0.40;99.90;;;;;;5069120;28;20463;-62
2022/12/09 07:33:31;;;;;;;16.67;9.57;;;0.40;99.90;;;;;;5067606;28;20059;-62
2022/12/09 07:35:58;;;;;;;20.48;10.32;;;0.50;99.90;;;;;;5074878;28;20024;-61
2022/12/09 07:38:25;;;;;;;21.85;10.90;;;0.40;99.90;;;;;;5069681;28;20036;-62
2022/12/09 07:40:52;;;;;;;20.40;11.25;;;0.50;99.90;;;;;;5059150;28;20017;-63
2022/12/09 07:43:18;;;;;;;22.02;11.02;;;0.50;99.90;;;;;;5069106;28;20036;-63
2022/12/09 07:45:44;;;;;;;24.35;11.32;;;0.50;99.90;;;;;;5065751;28;20025;-61
2022/12/09 07:48:10;;;;;;;18.13;10.75;;;0.40;99.90;;;;;;5068967;28;20511;-61
2022/12/09 07:50:37;;;;;;;21.90;10.80;;;0.40;99.90;;;;;;5066998;28;20016;-63
2022/12/09 07:53:03;;;;;;;20.48;10.15;;;0.40;99.90;;;;;;5068561;28;20024;-63
2022/12/09 07:55:29;;;;;;;26.80;11.13;;;0.40;99.90;;;;;;5076501;28;20036;-63
2022/12/09 07:57:55;;;;;;;21.10;11.23;;;0.40;99.90;;;;;;5068258;28;20028;-63
2022/12/09 08:00:21;;;;;;;23.65;12.85;;;0.40;99.90;;;;;;5069729;28;20473;-63
2022/12/09 08:02:46;;;;;;;23.08;11.73;;;0.40;99.90;;;;;;5075626;28;20465;-63
2022/12/09 08:05:12;;;;;;;21.92;11.88;;;0.50;99.90;;;;;;5083931;28;20099;-63
2022/12/09 08:07:38;;;;;;;23.77;12.57;;;0.50;99.90;;;;;;5066864;28;20380;-63
2022/12/09 08:10:04;;;;;;;20.27;10.90;;;0.50;99.90;;;;;;5072339;28;20020;-63
2022/12/09 08:12:30;;;;;;;22.02;11.32;;;0.50;99.90;;;;;;5066226;28;20071;-61
2022/12/09 08:14:56;;;;;;;30.40;14.05;;;0.60;99.90;;;;;;5068579;28;20083;-62
2022/12/09 08:17:23;;;;;;;29.55;12.10;;;0.60;99.90;;;;;;5068428;28;20464;-62
2022/12/09 08:19:49;;;;;;;26.10;12.18;;;0.60;99.90;;;;;;5066908;28;20025;-63
2022/12/09 08:22:15;;;;;;;21.65;11.90;;;0.60;99.90;;;;;;5068285;28;20143;-62
2022/12/09 08:24:41;;;;;;;22.75;12.07;;;0.60;99.90;;;;;;5065531;28;20178;-64
2022/12/09 08:27:06;;;;;;;27.15;12.48;;;0.60;99.90;;;;;;5068816;28;20032;-62
2022/12/09 08:29:32;;;;;;;24.52;12.38;;;0.70;99.90;;;;;;5070153;28;20388;-62
2022/12/09 08:31:58;;;;;;;29.15;13.70;;;0.70;99.90;;;;;;5072096;28;20024;-62
2022/12/09 08:34:24;;;;;;;24.38;13.20;;;0.80;99.90;;;;;;5072118;28;20103;-62
2022/12/09 08:36:49;;;;;;;20.80;12.25;;;0.80;99.90;;;;;;5069074;28;20032;-62
2022/12/09 08:39:15;;;;;;;26.20;12.30;;;0.80;99.90;;;;;;5067583;28;20036;-62
2022/12/09 08:41:42;;;;;;;26.58;12.50;;;0.80;99.90;;;;;;5067940;28;20341;-62
2022/12/09 08:44:16;;;;;;;27.42;13.10;;;0.80;99.90;;;;;;5071978;28;20028;-61
2022/12/09 08:46:45;;;;;;;19.83;12.35;;;0.90;99.90;;;;;;5066881;28;20086;-64
2022/12/09 08:49:12;;;;;;;21.42;12.50;;;0.90;99.90;;;;;;5071861;28;20035;-62
2022/12/09 08:51:38;;;;;;;23.40;11.13;;;1.00;99.90;;;;;;5069784;28;20025;-62
2022/12/09 08:54:05;;;;;;;23.55;11.82;;;1.00;99.90;;;;;;5071733;28;20507;-62
2022/12/09 08:56:30;;;;;;;19.42;10.93;;;1.00;99.90;;;;;;5067170;28;20468;-62
2022/12/09 08:58:56;;;;;;;20.98;11.18;;;1.00;99.90;;;;;;5071780;28;20036;-63
2022/12/09 09:01:25;;;;;;;20.67;11.98;;;1.00;99.90;;;;;;5071502;28;20074;-62
2022/12/09 09:03:51;;;;;;;22.30;11.32;;;1.00;99.90;;;;;;5071215;28;20021;-63
2022/12/09 09:06:18;;;;;;;22.35;11.82;;;1.00;99.90;;;;;;5071172;28;20361;-62
2022/12/09 09:08:44;;;;;;;19.38;11.07;;;1.10;99.90;;;;;;5069921;28;20116;-62
2022/12/09 09:11:13;;;;;;;19.63;10.57;;;1.10;99.90;;;;;;5073167;28;20028;-61
2022/12/09 09:13:40;;;;;;;22.77;11.70;;;1.00;99.90;;;;;;5071943;28;20032;-62
2022/12/09 09:16:15;;;;;;;27.63;12.05;;;1.00;99.90;;;;;;5071520;28;20044;-62
2022/12/09 09:18:41;;;;;;;25.55;11.55;;;1.10;99.90;;;;;;5052138;28;20487;-63
2022/12/09 09:21:09;;;;;;;21.63;11.80;;;1.10;99.90;;;;;;5058102;28;20047;-61
2022/12/09 09:23:35;;;;;;;21.73;11.85;;;1.10;99.90;;;;;;5066850;28;20042;-60
2022/12/09 09:26:01;;;;;;;21.63;11.05;;;1.00;99.90;;;;;;5061816;28;20036;-61
2022/12/09 09:28:27;;;;;;;24.27;11.88;;;1.00;99.90;;;;;;5063849;28;20047;-60
2022/12/09 09:31:04;;;;;;;24.00;12.63;;;1.00;99.90;;;;;;5062168;28;20021;-61
2022/12/09 09:33:31;;;;;;;25.48;12.45;;;1.00;99.90;;;;;;5066726;28;20571;-61
2022/12/09 09:35:59;;;;;;;25.75;12.15;;;1.10;99.90;;;;;;5063453;28;20046;-61
2022/12/09 09:38:26;;;;;;;26.83;12.82;;;1.10;99.90;;;;;;5062203;28;20540;-62
2022/12/09 09:40:52;;;;;;;28.05;13.88;;;1.10;99.90;;;;;;5066185;28;20097;-61
2022/12/09 09:43:22;;;;;;;31.10;14.02;;;1.10;99.90;;;;;;5071773;28;20031;-61
2022/12/09 09:45:48;;;;;;;22.60;12.23;;;1.20;99.90;;;;;;5070267;28;20033;-61
2022/12/09 09:48:17;;;;;;;28.52;13.50;;;1.20;99.90;;;;;;5075378;28;20082;-62
2022/12/09 09:50:59;;;;;;;28.27;12.70;;;1.20;99.90;;;;;;5068752;28;20020;-61
2022/12/09 09:53:30;;;;;;;29.90;13.30;;;1.20;99.90;;;;;;5070033;28;20119;-62
2022/12/09 09:55:56;;;;;;;26.55;13.20;;;1.20;99.90;;;;;;5071257;28;20017;-61
2022/12/09 09:58:51;;;;;;;26.75;13.30;;;1.20;99.90;;;;;;5069435;28;20051;-61
2022/12/09 10:01:17;;;;;;;30.52;15.05;;;1.20;99.90;;;;;;5071002;28;20021;-61
2022/12/09 10:04:01;;;;;;;26.63;13.02;;;1.30;99.90;;;;;;5065683;28;20484;-62
2022/12/09 10:06:48;;;;;;;23.58;12.82;;;1.30;99.90;;;;;;5071157;28;20040;-61
2022/12/09 10:09:42;;;;;;;25.02;13.25;;;1.30;99.90;;;;;;5067212;28;20033;-61
2022/12/09 10:12:19;;;;;;;24.35;13.57;;;1.30;99.90;;;;;;5065184;28;20032;-61
2022/12/09 10:15:07;;;;;;;24.83;13.18;;;1.30;99.90;;;;;;5065701;28;20029;-63
2022/12/09 10:17:49;;;;;;;24.67;13.02;;;1.30;99.90;;;;;;5070132;28;20169;-62
2022/12/09 10:20:20;;;;;;;26.40;13.82;;;1.40;99.90;;;;;;5071325;28;20029;-63
2022/12/09 10:23:09;;;;;;;28.83;15.25;;;1.40;99.90;;;;;;5070904;28;20117;-62
2022/12/09 10:25:42;;;;;;;28.13;13.45;;;1.50;99.90;;;;;;5071011;28;20028;-62
2022/12/09 10:28:26;;;;;;;24.05;12.52;;;1.60;99.90;;;;;;5069355;28;20091;-64
2022/12/09 10:30:54;;;;;;;27.17;13.00;;;1.70;99.90;;;;;;5066604;28;20116;-63
2022/12/09 10:33:33;;;;;;;25.92;12.85;;;1.70;99.90;;;;;;5076664;28;20040;-61
2022/12/09 10:35:59;;;;;;;28.77;14.32;;;1.70;99.90;;;;;;5069537;28;20444;-61
2022/12/09 10:38:28;;;;;;;23.85;13.13;;;1.60;99.90;;;;;;5065193;28;20373;-63
2022/12/09 10:41:05;;;;;;;29.13;13.80;;;1.80;99.90;;;;;;5061628;28;20044;-65
2022/12/09 10:43:54;;;;;;;29.35;14.25;;;1.90;99.90;;;;;;5068349;28;20066;-62
2022/12/09 10:46:22;;;;;;;26.48;12.90;;;1.90;99.90;;;;;;5069932;28;20064;-61
2022/12/09 10:48:48;;;;;;;27.05;13.77;;;1.90;99.90;;;;;;5067652;28;20046;-61
2022/12/09 10:51:46;;;;;;;31.77;14.07;;;1.90;99.90;;;;;;5069771;28;20111;-62
2022/12/09 10:54:36;;;;;;;26.40;12.48;;;1.90;99.90;;;;;;5069736;28;20494;-62
2022/12/09 10:57:10;;;;;;;29.50;13.70;;;1.90;99.90;;;;;;5066897;28;20044;-61
2022/12/09 10:59:37;;;;;;;27.13;13.48;;;1.90;99.90;;;;;;5067812;28;20028;-62
2022/12/09 11:02:09;;;;;;;29.60;13.60;;;2.00;99.90;;;;;;5069526;28;20065;-62
2022/12/09 11:04:36;;;;;;;29.40;13.57;;;2.00;99.90;;;;;;5057898;28;20032;-61
2022/12/09 11:07:11;;;;;;;30.80;13.20;;;1.90;99.90;;;;;;5070071;28;20381;-61
2022/12/09 11:09:48;;;;;;;27.30;12.88;;;1.90;99.90;;;;;;5068059;28;20105;-62
2022/12/09 11:12:29;;;;;;;27.65;13.50;;;2.00;99.90;;;;;;5069416;28;20460;-61
2022/12/09 11:15:01;;;;;;;27.17;13.57;;;2.10;99.90;;;;;;5062195;28;20025;-61
2022/12/09 11:17:33;;;;;;;24.85;12.00;;;2.00;99.90;;;;;;5067636;28;20032;-61
2022/12/09 11:20:05;;;;;;;;;;;2.10;99.90;;;;;;5070146;28;20073;-62
2022/12/09 11:22:39;;;;;;;24.08;11.43;;;2.00;99.90;;;;;;5067449;28;19916;-62
2022/12/09 11:25:22;;;;;;;31.88;13.13;;;2.10;99.90;;;;;;5069924;28;20021;-61
2022/12/09 11:27:57;;;;;;;30.35;12.63;;;2.30;99.90;;;;;;5067014;28;20381;-60
2022/12/09 11:30:31;;;;;;;23.13;10.85;;;2.30;99.90;;;;;;5069394;28;20032;-61
2022/12/09 11:33:14;;;;;;;22.73;11.05;;;2.30;99.90;;;;;;5069319;28;20021;-61
2022/12/09 11:35:43;;;;;;;22.58;11.35;;;2.20;99.90;;;;;;5061301;28;20055;-61
2022/12/09 11:38:30;;;;;;;27.33;12.30;;;2.20;99.90;;;;;;5061363;28;20071;-61
2022/12/09 11:41:10;;;;;;;21.20;10.55;;;2.30;99.90;;;;;;5061488;28;20520;-62
2022/12/09 11:43:55;;;;;;;23.13;10.93;;;2.20;99.90;;;;;;5067635;28;20029;-61
2022/12/09 11:46:27;;;;;;;25.95;11.30;;;2.30;99.90;;;;;;5068950;28;20037;-61
2022/12/09 11:49:04;;;;;;;;;;;2.40;99.90;;;;;;5061548;28;20501;-61
2022/12/09 11:51:39;;;;;;;23.73;11.50;;;2.40;99.90;;;;;;5061358;28;19908;-61
2022/12/09 11:54:19;;;;;;;28.17;13.13;;;2.50;99.90;;;;;;5062900;28;20035;-61
2022/12/09 11:56:46;;;;;;;24.67;12.57;;;2.40;99.90;;;;;;5062172;28;20546;-61
2022/12/09 11:59:23;;;;;;;25.92;12.27;;;2.40;99.90;;;;;;5069090;28;20075;-61
2022/12/09 12:01:56;;;;;;;24.10;11.93;;;2.40;99.90;;;;;;5064384;28;20115;-62
2022/12/09 12:04:49;;;;;;;30.50;12.68;;;2.50;99.90;;;;;;5073332;28;20032;-62
2022/12/09 12:07:27;;;;;;;24.85;11.13;;;2.50;99.90;;;;;;5056811;28;20029;-62
2022/12/09 12:09:56;;;;;;;26.17;12.23;;;2.50;99.90;;;;;;5073149;28;20087;-61
2022/12/09 12:12:49;;;;;;;23.65;11.25;;;2.60;99.90;;;;;;5072285;28;20348;-62
2022/12/09 12:15:35;;;;;;;28.20;12.57;;;2.50;99.90;;;;;;5066161;28;20035;-62
2022/12/09 12:18:04;;;;;;;24.50;11.68;;;2.50;99.90;;;;;;5065508;28;20415;-62
2022/12/09 12:20:48;;;;;;;21.83;11.27;;;2.60;99.90;;;;;;5070926;28;20033;-61
2022/12/09 12:23:24;;;;;;;23.88;11.32;;;2.60;99.90;;;;;;5072240;28;20067;-61
2022/12/09 12:25:57;;;;;;;25.70;12.35;;;2.60;99.90;;;;;;5070632;28;20042;-61
2022/12/09 12:28:32;;;;;;;25.02;11.63;;;2.80;99.90;;;;;;5072512;28;20028;-62
2022/12/09 12:31:09;;;;;;;22.35;10.60;;;2.80;99.90;;;;;;5072202;28;20039;-61
2022/12/09 12:33:40;;;;;;;25.73;12.65;;;2.80;99.90;;;;;;5070600;28;20099;-62
2022/12/09 12:36:20;;;;;;;25.13;12.25;;;2.80;99.90;;;;;;5071777;28;20024;-61
2022/12/09 12:39:12;;;;;;;25.35;12.13;;;2.80;99.90;;;;;;5054513;28;20033;-61
2022/12/09 12:41:54;;;;;;;22.38;10.85;;;2.90;99.90;;;;;;5066837;28;20039;-61
2022/12/09 12:47:50;;;;;;;19.00;7.78;;;3.10;99.90;;;;;;5067813;28;20412;-61
2022/12/09 12:50:29;;;;;;;22.05;11.02;;;3.20;99.90;;;;;;5069334;28;20047;-62
2022/12/09 12:53:09;;;;;;;23.45;10.95;;;3.20;99.90;;;;;;5071912;28;20071;-61
2022/12/09 12:55:59;;;;;;;24.63;12.15;;;3.20;99.90;;;;;;5069602;28;20054;-60